Allenwood, New York
Current Conditions -  °F | °C
As of 7:51 AM on Thursday 30 Oct 2014 (Local Time) from KLGA Reporting Station
Few Clouds Few Clouds  
Wind Chill: 50°   Ceiling: Unl
Heat Index: 50°   Visibility: 10mi
Dew Point: 44°   Wind: 7mph
Humidity: 80%   Direction: 300°WNW
Pressure: 29.98"   Gusts: NA
Location:  40.786°N, 73.7291°W
Report Text: KLGA 301151Z 30006KT 10SM FEW170 10/07 A2998 RMK AO2 SLP152 T01000067 10117 20100 53014
Loading
Personal Weather Stations






























Interactive Weather Map
Tropical Storm Tracking
New forecast layout! Learn more

10-Day Weather Forecast

Advertisements
Track Severe Weather on mobile